Time;durP1;ratioP1;P1;durP2;ratioP2;P2;SDS_P1;SDS_P2;PMS_P1;PMS_P2;Temp;Humidity;BMP_temperature;BMP_pressure;BME280_temperature;BME280_humidity;BME280_pressure;Samples;Min_cycle;Max_cycle;Signal;HPM_P1;HPM_P2
2023/12/24 00:01:06;;;;;;;9.73;2.85;;;;;;;10.09;100.00;100655.22;5082750;28;20147;-80
2023/12/24 00:03:38;;;;;;;12.23;3.25;;;;;;;10.02;100.00;100645.88;5100122;27;20980;-78
2023/12/24 00:06:07;;;;;;;9.88;2.90;;;;;;;10.16;100.00;100652.16;5088765;27;20031;-78
2023/12/24 00:08:33;;;;;;;13.73;3.10;;;;;;;10.18;100.00;100647.56;5085305;28;20041;-79
2023/12/24 00:10:59;;;;;;;11.90;3.17;;;;;;;10.11;100.00;100666.63;5076790;28;21001;-79
2023/12/24 00:13:26;;;;;;;17.17;3.50;;;;;;;10.16;100.00;100681.47;5077276;28;20036;-79
2023/12/24 00:15:52;;;;;;;13.57;3.30;;;;;;;10.16;100.00;100668.13;5081400;27;20036;-79
2023/12/24 00:18:18;;;;;;;9.70;3.33;;;;;;;10.17;100.00;100668.03;5087687;28;20204;-80
2023/12/24 00:20:44;;;;;;;13.50;3.42;;;;;;;10.15;100.00;100667.28;5087062;28;20040;-80
2023/12/24 00:23:10;;;;;;;12.48;3.63;;;;;;;10.20;100.00;100656.34;5085523;28;20060;-81
2023/12/24 00:25:40;;;;;;;10.45;3.30;;;;;;;10.17;100.00;100664.50;5087731;28;20043;-81
2023/12/24 00:28:06;;;;;;;7.85;3.40;;;;;;;10.19;100.00;100651.94;5102807;27;20066;-79
2023/12/24 00:30:41;;;;;;;9.75;4.45;;;;;;;10.18;100.00;100639.56;5089866;27;20105;-78
2023/12/24 00:33:07;;;;;;;7.70;2.65;;;;;;;10.18;100.00;100623.56;5087739;28;21040;-78
2023/12/24 00:35:34;;;;;;;8.57;3.53;;;;;;;10.18;100.00;100621.78;5082721;28;20029;-80
2023/12/24 00:38:01;;;;;;;7.80;3.05;;;;;;;10.16;100.00;100618.38;5082961;28;20079;-77
2023/12/24 00:40:27;;;;;;;9.80;3.08;;;;;;;10.15;100.00;100602.47;5071508;28;21315;-79
2023/12/24 00:42:53;;;;;;;9.32;3.15;;;;;;;10.23;100.00;100606.34;5094871;27;20040;-78
2023/12/24 00:45:18;;;;;;;9.02;2.92;;;;;;;10.30;100.00;100586.38;5099659;27;20084;-81
2023/12/24 00:47:44;;;;;;;8.95;2.90;;;;;;;10.18;100.00;100596.94;5089120;28;20456;-77
2023/12/24 00:50:10;;;;;;;12.73;2.80;;;;;;;10.20;100.00;100584.38;5087163;28;20053;-79
2023/12/24 00:52:36;;;;;;;10.57;2.45;;;;;;;10.24;100.00;100581.44;5084523;28;20113;-78
2023/12/24 00:55:08;;;;;;;12.52;2.97;;;;;;;10.20;100.00;100576.38;5097564;27;20044;-78
2023/12/24 00:57:33;;;;;;;12.27;3.50;;;;;;;10.28;100.00;100588.25;5101536;28;20054;-78
2023/12/24 00:59:59;;;;;;;11.55;2.90;;;;;;;10.24;100.00;100554.81;5084888;28;20437;-77
2023/12/24 01:02:24;;;;;;;9.38;3.00;;;;;;;10.18;100.00;100549.81;5102463;28;20044;-79
2023/12/24 01:04:52;;;;;;;8.48;2.70;;;;;;;10.25;100.00;100556.50;5095287;27;20033;-77
2023/12/24 01:07:18;;;;;;;9.20;3.03;;;;;;;10.27;100.00;100546.59;5100972;28;20040;-78
2023/12/24 01:09:43;;;;;;;7.80;2.33;;;;;;;10.22;100.00;100527.34;5094641;27;20032;-78
2023/12/24 01:12:12;;;;;;;11.55;2.58;;;;;;;10.28;100.00;100528.78;5094287;27;20035;-77
2023/12/24 01:14:38;;;;;;;12.65;2.53;;;;;;;10.34;100.00;100529.25;5100443;28;20052;-76
2023/12/24 01:17:07;;;;;;;10.20;2.13;;;;;;;10.25;100.00;100535.19;5110348;28;20047;-76
2023/12/24 01:19:38;;;;;;;6.80;2.08;;;;;;;10.24;100.00;100543.25;5094103;28;20037;-77
2023/12/24 01:22:07;;;;;;;10.67;2.70;;;;;;;10.23;100.00;100536.19;5108988;28;20039;-77
2023/12/24 01:24:32;;;;;;;5.60;2.50;;;;;;;10.29;100.00;100547.34;5106857;28;20399;-77
2023/12/24 01:26:58;;;;;;;5.15;2.20;;;;;;;10.30;100.00;100535.72;5111298;27;20029;-77
2023/12/24 01:29:26;;;;;;;7.60;2.40;;;;;;;10.30;100.00;100530.41;5111766;28;20040;-77
2023/12/24 01:31:52;;;;;;;6.30;2.30;;;;;;;10.27;100.00;100533.25;5116409;27;20267;-76
2023/12/24 01:34:18;;;;;;;6.75;2.50;;;;;;;10.31;100.00;100534.78;5107137;28;20032;-78
2023/12/24 01:36:43;;;;;;;8.48;2.80;;;;;;;10.31;100.00;100525.91;5107672;28;20033;-76
2023/12/24 01:39:10;;;;;;;9.02;2.60;;;;;;;10.39;100.00;100523.56;5100771;28;20244;-77
2023/12/24 01:41:38;;;;;;;8.07;2.88;;;;;;;10.30;100.00;100519.75;5087481;28;20092;-77
2023/12/24 01:44:06;;;;;;;6.15;2.63;;;;;;;10.27;100.00;100543.06;5100572;27;20037;-79
2023/12/24 01:46:41;;;;;;;8.60;2.70;;;;;;;10.24;100.00;100529.94;5089904;28;20036;-78
2023/12/24 01:49:07;;;;;;;13.73;3.42;;;;;;;10.36;100.00;100537.13;5087650;28;20040;-77
2023/12/24 01:51:34;;;;;;;8.55;3.88;;;;;;;10.23;100.00;100536.19;5095916;28;21335;-78
2023/12/24 01:54:07;;;;;;;8.55;4.22;;;;;;;10.16;100.00;100530.44;5083076;27;20050;-77
2023/12/24 01:56:33;;;;;;;6.07;3.88;;;;;;;10.04;100.00;100539.22;5090547;27;20044;-79
2023/12/24 01:58:59;;;;;;;7.18;3.72;;;;;;;10.00;100.00;100535.94;5086931;27;20071;-76
2023/12/24 02:01:28;;;;;;;10.38;4.40;;;;;;;10.03;100.00;100542.84;5101346;27;20168;-79
2023/12/24 02:03:57;;;;;;;9.38;3.90;;;;;;;9.98;100.00;100544.97;5107460;27;20035;-77
2023/12/24 02:06:25;;;;;;;14.18;5.05;;;;;;;9.92;100.00;100540.03;5097052;27;20036;-78
2023/12/24 02:08:50;;;;;;;4.93;4.00;;;;;;;9.76;100.00;100534.88;5088759;27;20390;-77
2023/12/24 02:11:20;;;;;;;9.27;4.70;;;;;;;9.85;100.00;100547.59;5093335;27;20177;-78
2023/12/24 02:13:52;;;;;;;14.95;5.22;;;;;;;9.78;100.00;100548.91;5106040;27;20100;-78
2023/12/24 02:16:20;;;;;;;12.23;4.93;;;;;;;9.68;100.00;100548.66;5091573;27;20039;-80
2023/12/24 02:18:46;;;;;;;10.60;4.80;;;;;;;9.62;100.00;100542.88;5105281;27;20048;-80
2023/12/24 02:21:13;;;;;;;11.18;5.38;;;;;;;9.65;100.00;100558.69;5083826;28;20028;-79
2023/12/24 02:23:38;;;;;;;12.50;5.18;;;;;;;9.62;100.00;100559.72;5108551;27;20502;-77
2023/12/24 02:26:24;;;;;;;11.18;5.15;;;;;;;9.55;100.00;100561.91;5077527;27;20044;-77
2023/12/24 02:28:54;;;;;;;19.02;6.03;;;;;;;9.49;100.00;100551.66;5096818;27;20054;-77
2023/12/24 02:31:23;;;;;;;12.30;5.88;;;;;;;9.54;100.00;100552.22;5093620;27;20032;-77
2023/12/24 02:33:52;;;;;;;14.82;6.55;;;;;;;9.53;100.00;100552.31;5091539;27;20834;-77
2023/12/24 02:36:17;;;;;;;20.23;6.40;;;;;;;9.46;100.00;100545.66;5109341;27;20039;-78
2023/12/24 02:38:43;;;;;;;10.88;5.82;;;;;;;9.52;100.00;100545.28;5110316;27;20127;-78
2023/12/24 02:41:09;;;;;;;16.25;6.60;;;;;;;9.43;100.00;100538.72;5095539;27;20093;-76
2023/12/24 02:43:34;;;;;;;14.48;7.25;;;;;;;9.49;100.00;100541.03;5110355;27;20042;-77
2023/12/24 02:46:08;;;;;;;18.05;7.45;;;;;;;9.42;100.00;100531.69;5070808;27;20100;-77
2023/12/24 02:48:34;;;;;;;17.02;7.38;;;;;;;9.46;100.00;100529.72;5103972;27;20040;-77
2023/12/24 02:51:03;;;;;;;15.07;7.00;;;;;;;9.49;100.00;100525.06;5089611;27;20032;-78
2023/12/24 02:53:32;;;;;;;13.00;7.13;;;;;;;9.51;100.00;100525.78;5094525;27;20040;-77
2023/12/24 02:55:59;;;;;;;19.15;8.02;;;;;;;9.46;100.00;100517.25;5076640;28;20647;-76
2023/12/24 02:58:26;;;;;;;19.67;7.20;;;;;;;9.49;100.00;100517.06;5090865;27;20043;-77
2023/12/24 03:00:52;;;;;;;21.70;8.18;;;;;;;9.41;100.00;100519.34;5101238;27;20035;-77
2023/12/24 03:03:18;;;;;;;18.35;9.38;;;;;;;9.54;100.00;100525.63;5097518;27;20031;-77
2023/12/24 03:05:43;;;;;;;18.63;8.60;;;;;;;9.54;100.00;100530.94;5076156;27;20027;-78
2023/12/24 03:08:09;;;;;;;17.20;8.30;;;;;;;9.52;100.00;100522.16;5099024;27;20114;-77
2023/12/24 03:10:38;;;;;;;21.00;7.40;;;;;;;9.48;100.00;100522.47;5099208;27;20039;-78
2023/12/24 03:13:06;;;;;;;19.05;8.13;;;;;;;9.54;100.00;100528.28;5091824;27;20125;-77
2023/12/24 03:15:37;;;;;;;18.75;8.35;;;;;;;9.55;100.00;100537.09;5100214;27;20067;-77
2023/12/24 03:18:04;;;;;;;23.42;8.85;;;;;;;9.60;100.00;100538.53;5105664;27;20035;-77
2023/12/24 03:20:31;;;;;;;21.05;9.23;;;;;;;9.58;100.00;100544.88;5076074;27;20114;-77
2023/12/24 03:22:56;;;;;;;22.98;9.43;;;;;;;9.60;100.00;100548.31;5086757;27;20051;-78
2023/12/24 03:25:22;;;;;;;24.77;10.32;;;;;;;9.63;100.00;100544.59;5102114;27;20040;-77
2023/12/24 03:27:50;;;;;;;23.17;8.57;;;;;;;9.63;100.00;100523.28;5069747;27;20067;-77
2023/12/24 03:30:17;;;;;;;24.48;9.77;;;;;;;9.66;100.00;100542.59;5106393;27;20066;-77
2023/12/24 03:32:49;;;;;;;17.23;9.60;;;;;;;9.68;100.00;100553.97;5105005;27;20719;-77
2023/12/24 03:35:15;;;;;;;20.60;9.00;;;;;;;9.63;100.00;100545.44;5100258;27;20047;-77
2023/12/24 03:37:40;;;;;;;21.63;9.18;;;;;;;9.68;100.00;100545.16;5106518;27;20043;-78
2023/12/24 03:40:07;;;;;;;20.80;9.60;;;;;;;9.69;100.00;100531.75;5093028;27;20919;-76
2023/12/24 03:42:35;;;;;;;18.08;9.23;;;;;;;9.68;100.00;100526.50;5100910;27;20047;-77
2023/12/24 03:45:04;;;;;;;18.88;8.85;;;;;;;9.67;100.00;100516.81;5082825;27;20034;-77
2023/12/24 03:47:33;;;;;;;21.05;9.65;;;;;;;9.70;100.00;100514.81;5085692;27;20032;-79
2023/12/24 03:50:09;;;;;;;18.75;8.88;;;;;;;9.78;100.00;100522.28;5089685;27;20098;-77
2023/12/24 03:52:41;;;;;;;18.35;9.77;;;;;;;9.82;100.00;100537.97;5104783;27;20101;-79
2023/12/24 03:55:07;;;;;;;14.63;8.95;;;;;;;9.77;100.00;100523.25;5092195;27;20556;-79
2023/12/24 03:57:36;;;;;;;14.90;8.75;;;;;;;9.68;100.00;100511.38;5084548;27;20056;-78
2023/12/24 04:00:13;;;;;;;19.40;9.02;;;;;;;9.82;100.00;100523.81;5112071;27;20093;-79
2023/12/24 04:02:39;;;;;;;20.20;9.18;;;;;;;9.81;100.00;100519.44;5076238;27;20036;-80
2023/12/24 04:05:07;;;;;;;20.20;9.10;;;;;;;9.81;100.00;100512.31;5097657;27;20024;-78
2023/12/24 04:07:33;;;;;;;19.77;10.20;;;;;;;9.82;100.00;100522.00;5083919;27;20128;-79
2023/12/24 04:10:08;;;;;;;21.55;10.27;;;;;;;9.85;100.00;100515.63;5105765;27;20036;-78
2023/12/24 04:12:37;;;;;;;18.58;9.32;;;;;;;9.81;100.00;100522.97;5081315;27;20035;-79
2023/12/24 04:15:10;;;;;;;14.95;9.38;;;;;;;9.83;100.00;100515.72;5071076;28;20680;-78
2023/12/24 04:17:36;;;;;;;17.88;9.27;;;;;;;9.89;100.00;100513.59;5101115;27;20040;-78
2023/12/24 04:20:11;;;;;;;15.43;9.57;;;;;;;9.89;100.00;100518.91;5086690;27;20367;-78
2023/12/24 04:22:55;;;;;;;18.65;9.35;;;;;;;9.92;100.00;100516.91;5095967;27;20032;-79
2023/12/24 04:25:21;;;;;;;14.63;8.32;;;;;;;9.86;100.00;100506.69;5103613;27;20107;-79
2023/12/24 04:27:49;;;;;;;12.75;8.07;;;;;;;9.91;100.00;100520.53;5084634;27;20444;-77
2023/12/24 04:30:21;;;;;;;11.05;7.82;;;;;;;9.98;100.00;100516.50;5068882;27;20047;-79
2023/12/24 04:32:50;;;;;;;16.35;9.00;;;;;;;9.91;100.00;100511.72;5091010;27;20035;-78
2023/12/24 04:35:15;;;;;;;15.18;8.70;;;;;;;9.78;100.00;100501.00;5084908;27;20055;-79
2023/12/24 04:37:41;;;;;;;15.88;8.27;;;;;;;9.95;100.00;100519.41;5084127;27;20797;-79
2023/12/24 04:40:08;;;;;;;15.35;8.95;;;;;;;9.98;100.00;100519.16;5062230;27;20090;-79
2023/12/24 04:42:34;;;;;;;16.45;9.05;;;;;;;10.01;100.00;100511.00;5099441;27;20020;-79
2023/12/24 04:45:06;;;;;;;15.02;9.18;;;;;;;9.99;100.00;100514.69;5065649;27;20044;-80
2023/12/24 04:47:55;;;;;;;13.68;8.35;;;;;;;9.97;100.00;100513.97;5088353;27;20159;-78
2023/12/24 04:50:21;;;;;;;14.90;9.00;;;;;;;9.96;100.00;100509.59;5060998;27;20071;-79
2023/12/24 04:52:50;;;;;;;15.75;8.43;;;;;;;10.02;100.00;100515.34;5108768;27;20580;-78
2023/12/24 04:55:15;;;;;;;14.30;8.18;;;;;;;10.04;100.00;100510.81;5098749;27;20031;-77
2023/12/24 04:57:44;;;;;;;14.65;9.05;;;;;;;10.04;100.00;100500.16;5100489;27;20224;-78
2023/12/24 05:00:11;;;;;;;12.65;7.53;;;;;;;10.04;100.00;100505.47;5092559;27;20052;-78
2023/12/24 05:02:37;;;;;;;10.30;6.88;;;;;;;10.06;100.00;100505.38;5107330;27;20035;-78
2023/12/24 05:05:06;;;;;;;13.15;7.20;;;;;;;10.11;100.00;100501.44;5102608;27;20948;-79
2023/12/24 05:07:34;;;;;;;11.73;7.10;;;;;;;10.09;100.00;100489.16;5074350;27;20535;-78
2023/12/24 05:10:01;;;;;;;14.13;6.13;;;;;;;10.13;100.00;100488.84;5090725;27;20486;-78
2023/12/24 05:12:26;;;;;;;9.60;6.20;;;;;;;10.16;100.00;100489.63;5071023;27;20101;-78
2023/12/24 05:14:53;;;;;;;8.63;5.95;;;;;;;10.19;100.00;100484.06;5088970;27;20053;-79
2023/12/24 05:17:18;;;;;;;10.63;5.57;;;;;;;10.02;100.00;100482.53;5089559;27;20055;-78
2023/12/24 05:19:45;;;;;;;10.18;5.22;;;;;;;10.19;100.00;100490.28;5102923;27;20031;-78
2023/12/24 05:22:13;;;;;;;8.50;5.03;;;;;;;10.15;100.00;100485.25;5101996;27;20075;-78
2023/12/24 05:24:40;;;;;;;5.43;4.38;;;;;;;10.16;100.00;100492.28;5088900;27;20100;-78
2023/12/24 05:27:06;;;;;;;5.07;4.03;;;;;;;10.19;100.00;100490.28;5087411;27;20040;-77
2023/12/24 05:29:40;;;;;;;7.65;4.07;;;;;;;10.21;100.00;100492.81;5103787;27;20056;-78
2023/12/24 05:32:06;;;;;;;6.45;4.63;;;;;;;10.21;100.00;100492.81;5093708;27;20361;-78
2023/12/24 05:34:38;;;;;;;6.93;3.92;;;;;;;10.19;100.00;100484.06;5109716;27;20032;-78
2023/12/24 05:37:06;;;;;;;4.28;3.78;;;;;;;10.17;100.00;100488.66;5106296;27;20039;-78
2023/12/24 05:39:42;;;;;;;7.97;4.70;;;;;;;10.19;100.00;100495.59;5109665;27;20027;-78
2023/12/24 05:42:08;;;;;;;5.25;4.10;;;;;;;10.30;100.00;100492.25;5097427;27;20046;-78
2023/12/24 05:44:34;;;;;;;6.95;4.40;;;;;;;10.28;100.00;100494.13;5109256;27;20039;-78
2023/12/24 05:47:06;;;;;;;6.03;3.63;;;;;;;10.27;100.00;100503.09;5112046;27;20158;-78
2023/12/24 05:49:38;;;;;;;;;;;;;;;10.36;100.00;100497.16;5117509;27;20031;-78
2023/12/24 05:52:06;;;;;;;3.17;2.83;;;;;;;10.32;100.00;100501.81;5080153;27;19927;-78
2023/12/24 05:54:35;;;;;;;3.67;2.83;;;;;;;10.29;100.00;100501.16;5100428;27;20862;-78
2023/12/24 05:57:02;;;;;;;2.80;2.60;;;;;;;10.29;100.00;100498.50;5112876;27;20106;-77
2023/12/24 05:59:27;;;;;;;4.38;2.40;;;;;;;10.31;100.00;100501.94;5115921;27;20027;-79
2023/12/24 06:01:53;;;;;;;3.47;2.47;;;;;;;10.35;100.00;100495.44;5084548;28;20499;-78
2023/12/24 06:04:18;;;;;;;2.17;1.98;;;;;;;10.40;100.00;100493.31;5098324;27;20503;-79
2023/12/24 06:06:44;;;;;;;2.20;1.95;;;;;;;10.35;100.00;100495.44;5121425;27;20063;-79
2023/12/24 06:09:16;;;;;;;1.80;1.70;;;;;;;10.42;100.00;100486.06;5104617;27;20040;-78
2023/12/24 06:11:41;;;;;;;2.15;1.95;;;;;;;10.36;100.00;100498.00;5115380;27;20067;-79
2023/12/24 06:14:07;;;;;;;2.00;1.80;;;;;;;10.46;100.00;100495.56;5104614;27;20032;-77
2023/12/24 06:16:33;;;;;;;1.70;1.60;;;;;;;10.46;100.00;100494.72;5122971;27;20401;-78
2023/12/24 06:18:58;;;;;;;3.15;1.50;;;;;;;10.46;100.00;100492.91;5122269;27;20040;-78
2023/12/24 06:21:27;;;;;;;1.70;1.60;;;;;;;10.49;100.00;100497.16;5124266;27;20019;-78
2023/12/24 06:23:52;;;;;;;2.10;1.67;;;;;;;10.48;100.00;100498.13;5120043;27;20175;-78
2023/12/24 06:26:18;;;;;;;2.05;1.90;;;;;;;10.52;100.00;100487.13;5123074;27;20036;-78
2023/12/24 06:28:43;;;;;;;1.90;1.80;;;;;;;10.52;100.00;100491.63;5123988;27;20028;-78
2023/12/24 06:31:09;;;;;;;3.25;1.67;;;;;;;10.55;100.00;100494.09;5122413;27;20028;-78
2023/12/24 06:33:35;;;;;;;3.83;1.67;;;;;;;10.57;100.00;100494.81;5104327;27;21010;-78
2023/12/24 06:36:08;;;;;;;1.58;1.48;;;;;;;10.59;100.00;100490.22;5095306;27;20040;-79
2023/12/24 06:38:33;;;;;;;2.83;1.83;;;;;;;10.60;100.00;100498.13;5127308;27;20046;-79
2023/12/24 06:40:59;;;;;;;2.60;2.20;;;;;;;10.62;100.00;100495.34;5124393;27;20031;-77
2023/12/24 06:43:31;;;;;;;4.47;2.35;;;;;;;10.61;100.00;100486.50;5116522;27;20048;-78
2023/12/24 06:46:00;;;;;;;2.30;1.80;;;;;;;10.61;100.00;100489.16;5100222;27;20048;-78
2023/12/24 06:48:26;;;;;;;2.00;1.58;;;;;;;10.60;100.00;100494.63;5119274;27;20331;-79
2023/12/24 06:50:52;;;;;;;1.52;1.42;;;;;;;10.70;100.00;100495.69;5092108;27;20050;-78
2023/12/24 06:53:17;;;;;;;1.70;1.60;;;;;;;10.67;100.00;100484.38;5102938;27;20978;-79
2023/12/24 06:55:52;;;;;;;2.15;1.90;;;;;;;10.70;100.00;100489.50;5098940;27;20060;-79
2023/12/24 06:58:18;;;;;;;4.80;2.00;;;;;;;10.68;100.00;100486.91;5089251;27;20044;-79
2023/12/24 07:00:43;;;;;;;3.63;1.70;;;;;;;10.67;100.00;100484.38;5091142;27;20032;-78
2023/12/24 07:03:09;;;;;;;4.28;2.25;;;;;;;10.72;100.00;100492.91;5096595;27;20833;-77
2023/12/24 07:05:41;;;;;;;2.70;2.25;;;;;;;10.71;100.00;100489.38;5093997;27;20599;-77
2023/12/24 07:08:07;;;;;;;3.55;3.05;;;;;;;10.72;100.00;100492.91;5103944;27;20115;-77
2023/12/24 07:10:33;;;;;;;3.30;2.45;;;;;;;10.76;100.00;100497.91;5106990;27;20069;-78
2023/12/24 07:13:02;;;;;;;4.15;2.67;;;;;;;10.74;100.00;100493.63;5107014;27;20055;-77
2023/12/24 07:15:39;;;;;;;4.03;2.65;;;;;;;10.76;100.00;100486.41;5090272;27;20101;-77
2023/12/24 07:18:07;;;;;;;3.60;2.58;;;;;;;10.72;100.00;100480.41;5105709;27;20047;-77
2023/12/24 07:20:33;;;;;;;5.30;2.90;;;;;;;10.77;100.00;100478.28;5110883;27;20028;-77
2023/12/24 07:22:58;;;;;;;5.00;2.35;;;;;;;10.78;100.00;100480.00;5091855;27;20094;-78
2023/12/24 07:25:28;;;;;;;3.53;2.60;;;;;;;10.80;100.00;100482.56;5084229;27;20097;-77
2023/12/24 07:27:54;;;;;;;2.22;1.92;;;;;;;10.78;100.00;100471.97;5082889;27;20104;-77
2023/12/24 07:30:20;;;;;;;2.30;2.10;;;;;;;10.80;100.00;100474.56;5100422;27;20048;-78
2023/12/24 07:32:45;;;;;;;3.92;2.40;;;;;;;10.85;100.00;100477.75;5084116;27;20048;-77
2023/12/24 07:35:20;;;;;;;3.53;2.60;;;;;;;10.80;100.00;100475.41;5108125;27;20036;-77
2023/12/24 07:37:50;;;;;;;3.60;2.85;;;;;;;10.88;100.00;100475.72;5106981;27;20036;-77
2023/12/24 07:40:16;;;;;;;4.78;3.50;;;;;;;10.82;100.00;100469.97;5108523;27;20039;-77
2023/12/24 07:42:41;;;;;;;4.75;2.97;;;;;;;10.87;100.00;100473.16;5106479;27;20028;-78
2023/12/24 07:45:08;;;;;;;6.00;3.42;;;;;;;10.89;100.00;100472.09;5101949;27;20048;-78
2023/12/24 07:47:33;;;;;;;5.20;3.15;;;;;;;10.89;100.00;100474.78;5086282;28;20835;-77
2023/12/24 07:50:07;;;;;;;3.75;3.00;;;;;;;10.94;100.00;100469.09;5105226;27;20537;-76
2023/12/24 07:52:33;;;;;;;4.40;2.50;;;;;;;10.89;100.00;100489.91;5105898;27;20028;-76
2023/12/24 07:54:59;;;;;;;6.18;3.10;;;;;;;10.91;100.00;100482.66;5090820;27;20899;-76
2023/12/24 07:57:27;;;;;;;8.18;3.60;;;;;;;10.96;100.00;100472.50;5106434;27;20046;-76
2023/12/24 07:59:52;;;;;;;5.18;2.90;;;;;;;10.96;100.00;100475.19;5099321;27;20073;-79
2023/12/24 08:02:18;;;;;;;3.97;2.72;;;;;;;10.94;100.00;100466.41;5105312;27;20047;-78
2023/12/24 08:04:44;;;;;;;5.05;3.78;;;;;;;11.01;100.00;100459.69;5104072;27;20043;-79
2023/12/24 08:07:09;;;;;;;6.70;3.53;;;;;;;10.99;100.00;100476.75;5107257;27;20843;-78
2023/12/24 08:09:44;;;;;;;6.05;3.42;;;;;;;10.94;100.00;100486.91;5105992;27;20034;-79
2023/12/24 08:12:10;;;;;;;8.93;3.70;;;;;;;10.91;100.00;100488.00;5105992;27;20035;-78
2023/12/24 08:14:36;;;;;;;7.15;3.92;;;;;;;10.98;100.00;100483.06;5097627;27;20974;-78
2023/12/24 08:17:08;;;;;;;4.97;3.05;;;;;;;10.92;100.00;100487.03;5104650;27;20044;-78
2023/12/24 08:19:33;;;;;;;7.28;4.05;;;;;;;10.99;100.00;100490.94;5087933;27;20585;-78
2023/12/24 08:21:59;;;;;;;3.78;3.22;;;;;;;10.97;100.00;100486.69;5098881;27;20161;-79
2023/12/24 08:24:25;;;;;;;5.95;3.53;;;;;;;11.00;100.00;100486.50;5081202;27;20839;-77
2023/12/24 08:26:51;;;;;;;7.20;3.25;;;;;;;11.10;100.00;100483.06;5089900;27;20036;-76
2023/12/24 08:29:17;;;;;;;7.90;3.53;;;;;;;11.08;100.00;100476.97;5104996;27;20153;-76
2023/12/24 08:31:42;;;;;;;3.42;2.38;;;;;;;11.04;100.00;100464.78;5102587;27;20040;-77
2023/12/24 08:34:08;;;;;;;5.50;2.67;;;;;;;11.07;100.00;100475.25;5095186;27;20040;-77
2023/12/24 08:36:33;;;;;;;3.10;2.67;;;;;;;11.09;100.00;100462.69;5101946;27;20036;-78
2023/12/24 08:38:59;;;;;;;2.47;2.28;;;;;;;11.12;100.00;100466.94;5099225;27;20076;-77
2023/12/24 08:41:24;;;;;;;2.40;2.20;;;;;;;11.17;100.00;100475.47;5079403;27;20040;-78
2023/12/24 08:43:50;;;;;;;2.72;2.10;;;;;;;11.12;100.00;100474.94;5086205;27;20061;-77
2023/12/24 08:46:16;;;;;;;2.67;2.20;;;;;;;11.12;100.00;100473.13;5089750;27;20043;-78
2023/12/24 08:48:42;;;;;;;4.50;2.35;;;;;;;11.15;100.00;100461.38;5080426;27;20047;-75
2023/12/24 08:51:11;;;;;;;8.00;2.85;;;;;;;11.26;100.00;100476.63;5084326;28;20040;-79
2023/12/24 08:53:36;;;;;;;4.20;2.50;;;;;;;11.14;100.00;100468.53;5075709;27;20138;-79
2023/12/24 08:56:06;;;;;;;3.30;2.08;;;;;;;11.17;100.00;100466.59;5096585;27;20514;-79
2023/12/24 08:58:33;;;;;;;3.15;1.80;;;;;;;11.18;100.00;100473.63;5102104;27;20043;-80
2023/12/24 09:00:58;;;;;;;3.53;2.10;;;;;;;11.23;100.00;100471.50;5071454;27;20043;-77
2023/12/24 09:03:36;;;;;;;2.53;1.88;;;;;;;11.25;100.00;100469.59;5101502;27;20031;-77
2023/12/24 09:06:08;;;;;;;2.88;1.92;;;;;;;11.26;100.00;100471.28;5097562;27;20090;-77
2023/12/24 09:08:36;;;;;;;1.90;1.50;;;;;;;11.24;100.00;100470.53;5091058;27;20131;-77
2023/12/24 09:11:07;;;;;;;2.42;1.77;;;;;;;11.24;100.00;100465.19;5080713;27;20058;-77
2023/12/24 09:13:39;;;;;;;2.42;1.92;;;;;;;11.31;100.00;100472.66;5106211;27;20089;-77
2023/12/24 09:16:09;;;;;;;3.67;1.90;;;;;;;11.30;100.00;100467.44;5105297;27;20191;-77
2023/12/24 09:18:38;;;;;;;1.60;1.45;;;;;;;11.25;100.00;100453.56;5090472;27;20460;-77
2023/12/24 09:21:10;;;;;;;1.85;1.50;;;;;;;11.27;100.00;100452.47;5069594;27;20108;-78
2023/12/24 09:23:38;;;;;;;1.40;1.30;;;;;;;11.30;100.00;100446.09;5104224;27;20038;-77
2023/12/24 09:26:07;;;;;;;1.48;1.38;;;;;;;11.35;100.00;100451.94;5069324;27;20046;-75
2023/12/24 09:28:39;;;;;;;3.78;1.65;;;;;;;11.36;100.00;100450.97;5103521;27;20036;-77
2023/12/24 09:31:07;;;;;;;1.63;1.52;;;;;;;11.26;100.00;100452.59;5102539;27;20902;-76
2023/12/24 09:33:34;;;;;;;1.60;1.50;;;;;;;11.34;100.00;100458.22;5109750;27;20580;-78
2023/12/24 09:36:08;;;;;;;3.63;1.70;;;;;;;11.39;100.00;100464.94;5095906;27;20043;-78
2023/12/24 09:38:38;;;;;;;2.25;1.60;;;;;;;11.40;100.00;100461.31;5087695;27;21403;-79
2023/12/24 09:41:18;;;;;;;2.08;1.77;;;;;;;11.44;100.00;100450.38;5108715;27;20486;-81
2023/12/24 09:43:44;;;;;;;3.20;1.77;;;;;;;11.46;100.00;100441.31;5086166;27;20039;-77
2023/12/24 09:46:09;;;;;;;1.70;1.60;;;;;;;11.46;100.00;100444.00;5101459;27;20708;-79
2023/12/24 09:48:38;;;;;;;1.70;1.60;;;;;;;11.49;100.00;100441.06;5111882;27;20044;-77
2023/12/24 09:51:08;;;;;;;1.77;1.60;;;;;;;11.50;100.00;100431.28;5097752;27;20054;-77
2023/12/24 09:53:34;;;;;;;1.70;1.60;;;;;;;11.58;100.00;100432.38;5091047;27;20050;-76
2023/12/24 09:56:09;;;;;;;1.85;1.42;;;;;;;11.55;100.00;100432.63;5090973;27;20040;-83
2023/12/24 09:58:38;;;;;;;3.10;1.60;;;;;;;11.53;100.00;100423.88;5096662;27;20039;-80
2023/12/24 10:01:10;;;;;;;2.53;1.70;;;;;;;11.56;100.00;100425.47;5107854;27;20494;-78
2023/12/24 10:03:38;;;;;;;4.45;2.13;;;;;;;11.64;100.00;100426.59;5109228;27;20082;-80
2023/12/24 10:06:08;;;;;;;3.03;2.03;;;;;;;11.62;100.00;100425.88;5089784;27;20032;-79
2023/12/24 10:08:38;;;;;;;3.75;2.60;;;;;;;11.57;100.00;100425.34;5101360;27;20032;-79
2023/12/24 10:11:15;;;;;;;3.40;1.92;;;;;;;11.58;100.00;100420.84;5085937;27;20024;-79
2023/12/24 10:13:44;;;;;;;4.30;2.20;;;;;;;11.65;100.00;100416.78;5083734;27;20048;-79
2023/12/24 10:16:10;;;;;;;7.20;2.75;;;;;;;11.66;100.00;100427.34;5091418;27;20028;-79
2023/12/24 10:18:50;;;;;;;13.90;3.90;;;;;;;11.62;100.00;100427.69;5085702;27;20044;-79
2023/12/24 10:21:16;;;;;;;10.80;3.50;;;;;;;11.67;100.00;100442.41;5091251;27;20028;-80
2023/12/24 10:23:42;;;;;;;10.23;3.88;;;;;;;11.72;100.00;100446.56;5093535;27;20040;-80
2023/12/24 10:26:11;;;;;;;10.10;3.90;;;;;;;11.66;100.00;100443.38;5108555;27;20036;-79
2023/12/24 10:28:50;;;;;;;19.35;6.55;;;;;;;11.73;100.00;100461.59;5112667;27;20036;-79
2023/12/24 10:31:16;;;;;;;17.25;6.20;;;;;;;11.75;100.00;100454.34;5113178;27;20039;-79
2023/12/24 10:33:42;;;;;;;17.65;6.53;;;;;;;11.72;100.00;100455.41;5108238;27;20027;-79
2023/12/24 10:36:11;;;;;;;18.50;8.45;;;;;;;11.74;100.00;100460.63;5114712;27;20094;-79
2023/12/24 10:38:37;;;;;;;19.85;8.38;;;;;;;11.76;100.00;100464.06;5108231;27;20097;-79
2023/12/24 10:41:09;;;;;;;25.73;9.07;;;;;;;11.83;100.00;100463.50;5089145;27;20032;-78
2023/12/24 10:43:38;;;;;;;31.88;9.18;;;;;;;11.81;100.00;100449.38;5094091;27;20048;-78
2023/12/24 10:46:07;;;;;;;29.38;9.75;;;;;;;11.81;100.00;100448.53;5083759;27;20036;-78
2023/12/24 10:48:41;;;;;;;42.35;10.32;;;;;;;11.84;100.00;100438.50;5110999;27;20035;-78
2023/12/24 10:51:07;;;;;;;36.15;11.63;;;;;;;11.90;100.00;100432.72;5099634;27;20422;-91
2023/12/24 10:53:50;;;;;;;41.80;12.15;;;;;;;11.90;100.00;100424.69;5107334;27;20031;-88
2023/12/24 10:56:27;;;;;;;36.75;10.98;;;;;;;11.97;100.00;100413.53;5082961;27;20048;-77
2023/12/24 10:59:17;;;;;;;33.85;11.05;;;;;;;11.97;100.00;100416.19;5095709;27;20494;-81
2023/12/24 11:01:52;;;;;;;37.38;9.48;;;;;;;12.00;100.00;100398.13;5114544;27;20044;-78
2023/12/24 11:04:41;;;;;;;39.05;9.85;;;;;;;12.09;100.00;100397.41;5098399;27;20043;-84
2023/12/24 11:07:07;;;;;;;41.42;9.85;;;;;;;12.12;100.00;100386.47;5100549;27;20456;-78
2023/12/24 11:09:33;;;;;;;33.80;9.65;;;;;;;12.10;100.00;100374.22;5110408;27;20036;-78
2023/12/24 11:11:58;;;;;;;46.70;10.05;;;;;;;12.24;100.00;100368.63;5114938;27;21030;-77
2023/12/24 11:14:36;;;;;;;42.17;9.15;;;;;;;12.24;100.00;100368.63;5117967;27;20485;-77
2023/12/24 11:17:36;;;;;;;50.75;11.43;;;;;;;12.18;100.00;100369.97;5094577;27;20051;-77
2023/12/24 11:20:16;;;;;;;32.63;8.80;;;;;;;12.25;100.00;100359.66;5103875;27;20097;-77